createdAt,value
2022-11-13T00:01:08.273Z,4.37
2022-11-13T00:03:35.667Z,4.27
2022-11-13T00:06:03.519Z,4.30
2022-11-13T00:08:31.390Z,4.50
2022-11-13T00:11:08.251Z,4.40
2022-11-13T00:13:36.331Z,4.50
2022-11-13T00:16:06.783Z,3.90
2022-11-13T00:21:08.820Z,4.30
2022-11-13T00:23:37.380Z,3.67
2022-11-13T00:26:09.955Z,4.00
2022-11-13T00:28:37.650Z,5.20
2022-11-13T00:31:06.196Z,3.53
2022-11-13T00:36:26.492Z,4.10
2022-11-13T00:38:54.647Z,4.00
2022-11-13T00:41:22.708Z,4.00
2022-11-13T00:43:50.407Z,4.17
2022-11-13T00:46:17.874Z,3.80
2022-11-13T00:48:45.386Z,3.70
2022-11-13T01:18:06.651Z,3.97
2022-11-13T01:20:34.152Z,3.93
2022-11-13T01:23:01.684Z,4.20
2022-11-13T01:25:29.976Z,4.20
2022-11-13T01:27:57.586Z,3.90
2022-11-13T01:30:25.271Z,3.87
2022-11-13T01:32:52.648Z,3.53
2022-11-13T01:35:20.067Z,4.37
2022-11-13T01:37:47.740Z,3.83
2022-11-13T01:40:15.460Z,4.23
2022-11-13T01:42:42.825Z,4.00
2022-11-13T01:45:47.265Z,4.00
2022-11-13T01:48:14.727Z,3.50
2022-11-13T02:55:26.820Z,3.60
2022-11-13T02:57:54.331Z,3.40
2022-11-13T03:00:21.763Z,3.90
2022-11-13T03:02:49.346Z,3.83
2022-11-13T03:05:16.845Z,4.23
2022-11-13T03:07:44.321Z,3.70
2022-11-13T03:10:12.593Z,4.17
2022-11-13T03:12:41.234Z,3.70
2022-11-13T03:15:09.977Z,3.30
2022-11-13T03:17:37.589Z,4.33
2022-11-13T03:20:06.194Z,3.73
2022-11-13T03:22:33.770Z,4.03
2022-11-13T03:27:28.363Z,4.03
2022-11-13T03:29:55.924Z,3.70
2022-11-13T03:32:23.287Z,3.90
2022-11-13T03:34:50.915Z,3.47
2022-11-13T03:37:18.370Z,3.67
2022-11-13T03:39:45.756Z,3.90
2022-11-13T03:42:13.364Z,3.53
2022-11-13T03:44:40.789Z,3.43
2022-11-13T03:47:08.392Z,3.53
2022-11-13T03:49:35.978Z,3.53
2022-11-13T03:52:03.406Z,3.60
2022-11-13T03:54:30.802Z,3.73
2022-11-13T04:00:15.480Z,3.83
2022-11-13T04:02:42.899Z,3.60
2022-11-13T04:05:10.607Z,4.07
2022-11-13T04:07:37.966Z,3.67
2022-11-13T04:10:05.832Z,3.80
2022-11-13T04:12:33.461Z,3.77
2022-11-13T04:15:00.863Z,3.83
2022-11-13T04:17:28.238Z,4.17
2022-11-13T04:19:55.841Z,4.03
2022-11-13T04:22:23.285Z,4.37
2022-11-13T04:24:50.934Z,3.53
2022-11-13T04:27:18.697Z,4.00
2022-11-13T04:56:39.290Z,4.10
2022-11-13T04:59:06.850Z,3.77
2022-11-13T05:01:36.323Z,3.83
2022-11-13T05:04:04.061Z,3.40
2022-11-13T05:06:31.749Z,3.50
2022-11-13T05:08:59.187Z,3.80
2022-11-13T05:11:26.772Z,3.97
2022-11-13T05:13:54.132Z,3.57
2022-11-13T05:16:21.775Z,3.80
2022-11-13T05:18:49.371Z,3.90
2022-11-13T05:21:17.187Z,3.73
2022-11-13T05:23:44.566Z,3.87
2022-11-13T05:40:47.456Z,3.80
2022-11-13T05:43:14.824Z,3.70
2022-11-13T05:45:42.261Z,3.73
2022-11-13T05:48:09.721Z,4.03
2022-11-13T05:50:37.138Z,4.07
2022-11-13T05:53:04.534Z,3.77
2022-11-13T05:55:32.112Z,4.00
2022-11-13T05:57:59.990Z,3.67
2022-11-13T06:00:27.486Z,3.77
2022-11-13T06:02:55.145Z,3.50
2022-11-13T06:05:22.594Z,4.33
2022-11-13T06:07:50.556Z,4.07
2022-11-13T06:12:45.142Z,3.87
2022-11-13T06:15:12.755Z,4.97
2022-11-13T06:17:40.340Z,3.50
2022-11-13T06:20:08.272Z,3.90
2022-11-13T06:22:35.721Z,3.70
2022-11-13T06:25:03.120Z,3.50
2022-11-13T06:27:30.638Z,4.13
2022-11-13T06:29:58.181Z,3.83
2022-11-13T06:32:25.592Z,4.03
2022-11-13T06:34:53.204Z,3.70
2022-11-13T06:37:20.639Z,3.90
2022-11-13T06:39:48.003Z,3.67
2022-11-13T06:57:02.497Z,3.60
2022-11-13T06:59:29.744Z,3.80
2022-11-13T07:01:57.192Z,5.17
2022-11-13T07:04:24.667Z,3.87
2022-11-13T07:06:52.136Z,3.80
2022-11-13T07:09:19.890Z,4.70
2022-11-13T07:11:47.287Z,4.50
2022-11-13T07:14:14.766Z,4.80
2022-11-13T07:17:07.369Z,4.80
2022-11-13T07:19:29.838Z,4.77
2022-11-13T07:21:57.463Z,4.17
2022-11-13T07:24:25.039Z,4.33
2022-11-13T07:29:19.488Z,4.03
2022-11-13T07:31:47.083Z,4.53
2022-11-13T07:34:15.354Z,4.97
2022-11-13T07:36:42.910Z,4.10
2022-11-13T07:39:10.378Z,4.03
2022-11-13T07:41:37.821Z,4.30
2022-11-13T07:44:08.949Z,4.53
2022-11-13T07:46:37.032Z,3.97
2022-11-13T07:49:05.039Z,3.83
2022-11-13T07:51:32.441Z,3.60
2022-11-13T07:53:59.877Z,4.30
2022-11-13T07:56:27.956Z,4.23
2022-11-13T09:16:42.908Z,4.27
2022-11-13T09:19:10.149Z,4.43
2022-11-13T09:21:37.524Z,4.20
2022-11-13T09:24:05.277Z,4.10
2022-11-13T09:26:33.008Z,4.20
2022-11-13T09:29:00.617Z,4.20
2022-11-13T09:31:28.020Z,4.87
2022-11-13T09:33:55.593Z,5.03
2022-11-13T09:36:23.001Z,4.90
2022-11-13T09:38:50.592Z,5.73
2022-11-13T09:41:21.596Z,4.00
2022-11-13T09:43:59.767Z,5.23
2022-11-13T09:49:18.261Z,3.77
2022-11-13T09:51:52.809Z,5.23
2022-11-13T09:54:21.221Z,3.70
2022-11-13T09:57:10.165Z,3.97
2022-11-13T10:00:07.115Z,4.20
2022-11-13T10:02:37.476Z,3.70
2022-11-13T10:05:35.189Z,3.47
2022-11-13T10:08:15.453Z,3.77
2022-11-13T10:11:04.365Z,3.70
2022-11-13T10:13:50.136Z,3.50
2022-11-13T10:16:38.788Z,4.40
2022-11-13T10:19:27.060Z,3.43
2022-11-13T10:22:26.464Z,3.97
2022-11-13T10:24:52.816Z,3.23
2022-11-13T10:39:44.003Z,3.53
2022-11-13T10:42:23.760Z,3.40
2022-11-13T10:44:59.756Z,4.20
2022-11-13T10:50:25.156Z,4.13
2022-11-13T10:52:54.622Z,3.83
2022-11-13T10:55:41.084Z,3.40
2022-11-13T10:58:17.376Z,3.43
2022-11-13T11:00:47.911Z,4.00
2022-11-13T11:03:25.556Z,3.57
2022-11-13T11:05:57.493Z,4.50
2022-11-13T11:08:31.012Z,3.53
2022-11-13T11:13:53.208Z,3.30
2022-11-13T11:16:25.780Z,4.47
2022-11-13T11:19:03.028Z,4.40
2022-11-13T11:21:34.085Z,4.10
2022-11-13T11:24:15.680Z,3.93
2022-11-13T11:26:50.037Z,4.60
2022-11-13T11:29:22.909Z,4.70
2022-11-13T11:32:05.308Z,4.27
2022-11-13T11:34:34.743Z,4.80
2022-11-13T11:37:18.203Z,4.27
2022-11-13T11:40:16.390Z,3.77
2022-11-13T11:42:50.600Z,4.37
2022-11-13T12:53:04.333Z,4.07
2022-11-13T12:55:35.384Z,3.90
2022-11-13T12:58:17.821Z,3.67
2022-11-13T13:00:56.566Z,3.77
2022-11-13T13:03:42.201Z,3.90
2022-11-13T13:06:30.824Z,3.70
2022-11-13T13:09:07.022Z,3.33
2022-11-13T13:11:49.345Z,3.80
2022-11-13T13:14:29.518Z,3.90
2022-11-13T13:17:15.177Z,3.73
2022-11-13T13:19:42.836Z,3.80
2022-11-13T13:22:27.821Z,2.90
2022-11-13T13:25:11.858Z,3.40
2022-11-13T13:27:42.114Z,3.03
2022-11-13T13:45:25.594Z,2.80
2022-11-13T13:47:54.735Z,4.13
2022-11-13T13:50:25.191Z,2.93
2022-11-13T13:52:55.943Z,3.77
2022-11-13T13:55:29.846Z,3.23
2022-11-13T13:58:00.367Z,3.10
2022-11-13T14:00:32.632Z,2.70
2022-11-13T14:03:00.350Z,3.37
2022-11-13T14:05:36.730Z,2.77
2022-11-13T14:08:08.030Z,3.43
2022-11-13T14:10:38.560Z,3.50
2022-11-13T14:13:06.308Z,3.30
2022-11-13T14:18:08.097Z,3.57
2022-11-13T14:20:45.071Z,3.40
2022-11-13T14:23:16.480Z,3.23
2022-11-13T14:25:45.061Z,3.30
2022-11-13T14:28:20.564Z,3.17
2022-11-13T14:31:03.298Z,3.47
2022-11-13T14:33:37.080Z,2.83
2022-11-13T14:36:05.267Z,3.13
2022-11-13T14:38:35.724Z,4.20
2022-11-13T14:41:03.748Z,2.70
2022-11-13T14:43:33.231Z,3.70
2022-11-13T14:49:34.629Z,3.30
2022-11-13T14:52:02.554Z,3.43
2022-11-13T14:54:53.155Z,3.27
2022-11-13T14:57:19.438Z,2.83
2022-11-13T14:59:47.058Z,3.90
2022-11-13T15:02:14.653Z,3.10
2022-11-13T15:04:42.247Z,3.83
2022-11-13T15:07:32.104Z,3.47
2022-11-13T15:10:00.294Z,3.60
2022-11-13T15:12:27.696Z,3.97
2022-11-13T15:14:55.337Z,3.90
2022-11-13T15:17:23.222Z,3.50
2022-11-13T16:11:35.640Z,3.30
2022-11-13T16:14:02.794Z,3.50
2022-11-13T16:16:37.990Z,7.57
2022-11-13T16:19:12.634Z,9.10
2022-11-13T16:21:40.048Z,40.47
2022-11-13T16:24:07.646Z,27.47
2022-11-13T16:26:35.215Z,36.43
2022-11-13T16:29:13.532Z,80.53
2022-11-13T16:31:42.115Z,77.13
2022-11-13T16:34:09.550Z,77.00
2022-11-13T16:36:37.015Z,69.93
2022-11-13T16:39:05.421Z,42.87
2022-11-13T16:41:33.144Z,31.10
2022-11-13T16:44:00.563Z,15.67
2022-11-13T16:46:31.241Z,17.83
2022-11-13T16:48:58.963Z,10.00
2022-11-13T16:51:26.512Z,6.03
2022-11-13T16:53:53.948Z,4.97
2022-11-13T16:56:29.748Z,4.10
2022-11-13T16:58:58.270Z,4.03
2022-11-13T17:01:26.262Z,4.70
2022-11-13T17:03:54.011Z,3.23
2022-11-13T17:33:33.779Z,4.57
2022-11-13T17:36:01.551Z,3.67
2022-11-13T17:38:29.230Z,4.10
2022-11-13T17:40:56.804Z,3.87
2022-11-13T17:43:24.423Z,3.70
2022-11-13T17:45:52.195Z,3.80
2022-11-13T17:48:19.969Z,3.80
2022-11-13T17:50:57.867Z,3.77
2022-11-13T17:53:26.002Z,3.30
2022-11-13T17:55:58.200Z,3.77
2022-11-13T17:58:26.431Z,3.83
2022-11-13T18:00:54.091Z,3.83
2022-11-13T18:30:24.377Z,3.77
2022-11-13T18:32:51.665Z,5.43
2022-11-13T18:35:19.272Z,4.33
2022-11-13T18:37:46.730Z,3.97
2022-11-13T18:40:14.156Z,4.53
2022-11-13T18:42:41.779Z,4.93
2022-11-13T18:45:09.699Z,4.00
2022-11-13T18:47:37.119Z,4.13
2022-11-13T18:50:04.930Z,4.23
2022-11-13T18:52:33.262Z,4.57
2022-11-13T18:55:00.907Z,4.20
2022-11-13T18:57:28.346Z,4.97
2022-11-13T21:38:05.052Z,4.43
2022-11-13T21:40:32.393Z,4.03
2022-11-13T21:42:59.851Z,4.13
2022-11-13T21:45:27.458Z,3.97
2022-11-13T21:47:55.272Z,3.63
2022-11-13T21:50:22.891Z,3.80
2022-11-13T21:52:50.298Z,4.70
2022-11-13T21:55:17.746Z,4.47
2022-11-13T21:57:45.180Z,3.67
2022-11-13T22:00:13.573Z,4.03
2022-11-13T22:02:41.245Z,4.00
2022-11-13T22:05:08.935Z,4.13
